ドーハ国際空港の過去48時間の天気

ドーハ国際空港 (Doha International Airport)

現在時刻: 9/16 06:07 +03 (9/16 03:07 UTC) 以下の時間は現地時間です。

過去48時間のMETAR気象情報
時間 風向 風速(m/s) 視程 気温(℃) 湿度(%) 気圧(hPa) 天気現象
16 05:30 西 2 10km以上 31 59 1006
16 05:00 不定 1 10km以上 32 56 1005
16 04:30 西北西 3 10km以上 32 59 1005
16 04:00 不定 2 10km以上 31 75 1005
16 03:30 不定 1 10km以上 31 79 1005
16 03:00 不定 1 10km以上 30 84 1005
16 02:30 不定 1 10km以上 30 84 1005
16 02:00 北北西 2 10km以上 30 89 1005
16 01:30 北北西 3 10km以上 31 84 1005
16 01:00 2 10km以上 31 84 1005
16 00:30 2 10km以上 31 84 1005
16 00:00 北北西 3 10km以上 32 79 1005
15 23:30 3 10km以上 32 79 1006
15 23:00 3 10km以上 32 79 1006
15 22:30 3 10km以上 32 79 1006
15 22:00 3 10km以上 32 84 1006
15 21:30 3 10km以上 32 84 1006
15 21:00 3 10km以上 33 80 1006
15 20:30 3 10km以上 33 80 1006
15 20:00 3 10km以上 33 75 1006
15 19:30 3 10km以上 33 71 1006
15 19:00 北東 2 10km以上 33 75 1006
15 18:30 東北東 3 10km以上 33 71 1005
15 18:00 4 10km以上 34 71 1005
15 17:30 4 9000m 34 71 1005
15 17:00 5 10km以上 34 71 1005
15 16:30 6 10km以上 34 71 1005
15 16:00 5 10km以上 35 67 1004
15 15:30 東北東 5 10km以上 36 50 1004
15 15:00 東北東 4 10km以上 36 53 1004
15 14:30 東北東 4 10km以上 37 50 1004
15 14:00 3 10km以上 36 57 1004
15 13:30 4 10km以上 36 57 1005
15 13:00 5 10km以上 35 60 1005
15 12:30 5 10km以上 36 53 1006
15 12:00 4 10km以上 37 45 1006
15 11:30 4 10km以上 36 47 1006
15 11:00 3 10km以上 36 53 1006
15 10:30 東北東 2 10km以上 36 53 1006
15 10:00 2 10km以上 36 53 1007
15 09:30 2 10km以上 35 60 1007
15 09:00 不定 2 10km以上 35 56 1007
15 08:30 東北東 2 10km以上 34 60 1007
15 08:00 不定 2 10km以上 34 60 1006
15 07:00 北北西 2 10km以上 32 63 1006
15 06:00 不定 1 10km以上 30 70 1005
15 05:00 北北西 2 10km以上 30 70 1005
OTBD 160230Z 28003KT 220V320 CAVOK 31/22 Q1006 NOSIG
OTBD 160200Z VRB02KT CAVOK 32/22 Q1005 NOSIG
OTBD 160130Z 29005KT 250V320 CAVOK 32/23 Q1005 NOSIG
OTBD 160100Z VRB03KT CAVOK 31/26 Q1005 NOSIG
OTBD 160030Z VRB02KT CAVOK 31/27 Q1005 NOSIG
OTBD 160000Z VRB02KT CAVOK 30/27 Q1005 NOSIG
OTBD 152330Z VRB02KT CAVOK 30/27 Q1005 NOSIG
OTBD 152300Z 34004KT CAVOK 30/28 Q1005 NOSIG
OTBD 152230Z 34005KT CAVOK 31/28 Q1005 NOSIG
OTBD 152200Z 08003KT 030V120 CAVOK 31/28 Q1005 NOSIG
OTBD 152130Z 36004KT 330V070 CAVOK 31/28 Q1005 NOSIG
OTBD 152100Z 33005KT CAVOK 32/28 Q1005 NOSIG
OTBD 152030Z 35005KT CAVOK 32/28 Q1006 NOSIG
OTBD 152000Z 36005KT CAVOK 32/28 Q1006 NOSIG
OTBD 151930Z 36005KT CAVOK 32/28 Q1006 NOSIG
OTBD 151900Z AUTO 35006KT CAVOK 32/29 Q1006 NOSIG
OTBD 151830Z AUTO 35006KT CAVOK 32/29 Q1006 NOSIG
OTBD 151800Z 36005KT CAVOK 33/29 Q1006 NOSIG
OTBD 151730Z AUTO 36005KT CAVOK 33/29 Q1006 NOSIG
OTBD 151700Z AUTO 01006KT CAVOK 33/28 Q1006 NOSIG
OTBD 151630Z AUTO 01005KT CAVOK 33/27 Q1006 NOSIG
OTBD 151600Z AUTO 05004KT CAVOK 33/28 Q1006 NOSIG
OTBD 151530Z AUTO 06005KT CAVOK 33/27 Q1005 NOSIG
OTBD 151500Z 08007KT CAVOK 34/28 Q1005 NOSIG
OTBD 151430Z 09008KT 9000 NSC 34/28 Q1005 NOSIG
OTBD 151400Z AUTO 09009KT CAVOK 34/28 Q1005 NOSIG
OTBD 151330Z AUTO 09012KT CAVOK 34/28 Q1005 NOSIG
OTBD 151300Z AUTO 09010KT CAVOK 35/28 Q1004 NOSIG
OTBD 151230Z AUTO 07009KT CAVOK 36/24 Q1004 NOSIG
OTBD 151200Z AUTO 06008KT CAVOK 36/25 Q1004 NOSIG
OTBD 151130Z AUTO 06007KT CAVOK 37/25 Q1004 NOSIG
OTBD 151100Z AUTO 08006KT 030V100 CAVOK 36/26 Q1004 NOSIG
OTBD 151030Z AUTO 10008KT 060V120 CAVOK 36/26 Q1005 NOSIG
OTBD 151000Z AUTO 09009KT CAVOK 35/26 Q1005 NOSIG
OTBD 150930Z AUTO 09010KT CAVOK 36/25 Q1006 NOSIG
OTBD 150900Z AUTO 10008KT CAVOK 37/23 Q1006 NOSIG
OTBD 150830Z AUTO 10007KT 070V130 CAVOK 36/23 Q1006 NOSIG
OTBD 150800Z AUTO 09006KT 060V120 CAVOK 36/25 Q1006 NOSIG
OTBD 150730Z AUTO 06004KT 330V130 CAVOK 36/25 Q1006 NOSIG
OTBD 150700Z AUTO 09003KT 030V160 CAVOK 36/25 Q1007 NOSIG
OTBD 150630Z AUTO 10004KT 050V150 CAVOK 35/26 Q1007 NOSIG
OTBD 150600Z AUTO VRB03KT CAVOK 35/25 Q1007 NOSIG
OTBD 150530Z AUTO 07003KT 010V140 CAVOK 34/25 Q1007 NOSIG
OTBD 150500Z AUTO VRB03KT CAVOK 34/25 Q1006 NOSIG
OTBD 150400Z AUTO 34004KT CAVOK 32/24 Q1006 NOSIG
OTBD 150300Z VRB02KT CAVOK 30/24 Q1005 NOSIG
OTBD 150200Z AUTO 34004KT CAVOK 30/24 Q1005 NOSIG